Mission, Canada
Current Conditions -  °F | °C
As of 1:00 AM on Thursday 27 Nov 2014 (Local Time) from CYXX Reporting Station
Light Rain Light Rain  
Wind Chill: 14°   Ceiling: 3000
Heat Index: 14°   Visibility: 10mi
Dew Point: 10°   Wind: 17mph
Humidity: 77%   Direction: 190°S
Pressure: 29.77"   Gusts: 30mph
Location:  49.13°N, 122.3°W
Report Text: CYXX 270900Z 19015G26KT 10SM -RA OVC030 14/10 A2977 RMK SC8 -RA INTMT SLP081 DENSITY ALT 200FT
Loading
Personal Weather Stations






























Interactive Weather Map New forecast layout! Learn more

10-Day Weather Forecast

Advertisements
Track Severe Weather on mobile